Time;durP1;ratioP1;P1;durP2;ratioP2;P2;SDS_P1;SDS_P2;PMS_P1;PMS_P2;Temp;Humidity;BMP_temperature;BMP_pressure;BME280_temperature;BME280_humidity;BME280_pressure;Samples;Min_cycle;Max_cycle;Signal;HPM_P1;HPM_P2
2023/04/02 04:00:40;;;;;;;0.10;0.10;;;2.20;99.90;;;;;;5758608;23;20237;-68
2023/04/02 04:03:12;;;;;;;0.63;0.63;;;2.20;99.90;;;;;;4908332;29;20234;-68
2023/04/02 04:05:47;;;;;;;0.20;0.20;;;2.20;99.90;;;;;;4909575;29;20217;-68
2023/04/02 04:08:18;;;;;;;0.10;0.10;;;2.20;99.90;;;;;;4911300;29;20543;-67
2023/04/02 04:10:45;;;;;;;0.30;0.30;;;2.30;99.90;;;;;;4904896;29;20223;-68
2023/04/02 04:13:15;;;;;;;0.10;0.10;;;2.30;99.90;;;;;;4891765;29;20241;-67
2023/04/02 04:15:50;;;;;;;0.63;0.63;;;2.30;99.90;;;;;;4893352;29;20234;-68
2023/04/02 04:18:33;;;;;;;0.30;0.30;;;2.30;99.90;;;;;;4892083;29;20206;-68
2023/04/02 04:21:02;;;;;;;0.10;0.10;;;2.30;99.90;;;;;;4892924;29;20266;-68
2023/04/02 04:23:32;;;;;;;0.20;0.20;;;2.30;99.90;;;;;;4893094;29;20211;-68
2023/04/02 04:26:04;;;;;;;0.10;0.10;;;2.40;99.90;;;;;;4894122;29;20218;-68
2023/04/02 04:28:37;;;;;;;4.00;2.65;;;2.40;99.90;;;;;;4894253;29;20257;-66
2023/04/02 04:31:16;;;;;;;0.90;0.77;;;2.40;99.90;;;;;;4895982;29;20223;-66
2023/04/02 04:33:49;;;;;;;0.52;0.38;;;2.50;99.90;;;;;;4885679;29;20298;-66
2023/04/02 04:36:26;;;;;;;0.50;0.50;;;2.50;99.90;;;;;;4890449;29;20218;-67
2023/04/02 04:38:58;;;;;;;0.32;0.32;;;2.50;99.90;;;;;;4896208;29;20285;-66
2023/04/02 04:41:28;;;;;;;0.75;0.30;;;2.50;99.90;;;;;;4897036;29;20511;-66
2023/04/02 04:44:02;;;;;;;0.30;0.30;;;2.50;99.90;;;;;;4897703;29;20200;-67
2023/04/02 04:46:33;;;;;;;0.20;0.20;;;2.60;99.90;;;;;;4893989;29;20214;-66
2023/04/02 04:49:05;;;;;;;0.30;0.30;;;2.60;99.90;;;;;;4904309;29;20247;-66
2023/04/02 04:51:36;;;;;;;0.20;0.20;;;2.60;99.90;;;;;;4920245;29;20215;-66
2023/04/02 04:54:03;;;;;;;0.20;0.20;;;2.70;99.90;;;;;;4913583;29;20208;-67
2023/04/02 04:56:31;;;;;;;0.10;0.10;;;2.70;99.90;;;;;;4910555;29;20218;-66
2023/04/02 04:59:02;;;;;;;0.10;0.10;;;2.70;99.90;;;;;;4900809;29;20283;-67
2023/04/02 05:01:37;;;;;;;0.10;0.10;;;2.70;99.90;;;;;;4908160;29;20235;-66
2023/04/02 05:04:12;;;;;;;0.30;0.30;;;2.80;99.90;;;;;;4912107;29;20199;-67
2023/04/02 05:06:42;;;;;;;0.10;0.10;;;2.80;99.90;;;;;;4913351;29;20664;-66
2023/04/02 05:09:16;;;;;;;0.60;0.60;;;2.80;99.90;;;;;;4913347;29;20207;-67
2023/04/02 05:11:46;;;;;;;0.73;0.30;;;2.80;99.90;;;;;;4919691;29;20237;-66
2023/04/02 05:14:22;;;;;;;0.75;0.50;;;2.80;99.90;;;;;;4918916;29;20360;-66
2023/04/02 05:16:57;;;;;;;0.10;0.10;;;2.80;99.90;;;;;;4920296;29;20195;-67
2023/04/02 05:19:28;;;;;;;0.20;0.20;;;2.90;99.90;;;;;;4919583;29;20191;-67
2023/04/02 05:21:59;;;;;;;0.50;0.50;;;2.90;99.90;;;;;;4901343;29;20302;-66
2023/04/02 05:24:40;;;;;;;0.20;0.20;;;2.90;99.90;;;;;;4888202;29;20218;-66
2023/04/02 05:27:18;;;;;;;0.20;0.20;;;2.90;99.90;;;;;;4888832;29;20215;-66
2023/04/02 05:29:50;;;;;;;0.20;0.20;;;2.90;99.90;;;;;;4897518;29;20215;-66
2023/04/02 05:32:23;;;;;;;0.20;0.20;;;2.90;99.90;;;;;;4897620;29;20243;-65
2023/04/02 05:34:54;;;;;;;0.20;0.20;;;3.00;99.90;;;;;;4898248;29;20203;-66
2023/04/02 05:37:24;;;;;;;1.75;0.50;;;3.00;99.90;;;;;;4895466;29;20200;-65
2023/04/02 05:39:55;;;;;;;0.30;0.30;;;3.10;99.90;;;;;;4894788;29;20291;-66
2023/04/02 05:42:25;;;;;;;0.20;0.20;;;3.10;99.90;;;;;;4893010;29;20227;-66
2023/04/02 05:45:06;;;;;;;0.20;0.20;;;3.10;99.90;;;;;;4890080;29;20203;-66
2023/04/02 05:47:39;;;;;;;0.22;0.22;;;3.20;99.90;;;;;;4889782;29;20207;-66
2023/04/02 05:50:21;;;;;;;0.40;0.40;;;3.20;99.90;;;;;;4901404;29;20207;-66
2023/04/02 05:52:52;;;;;;;0.10;0.10;;;3.30;99.90;;;;;;4897511;29;20214;-66
2023/04/02 05:55:33;;;;;;;0.85;0.20;;;3.30;99.90;;;;;;4889685;29;20210;-66
2023/04/02 05:58:06;;;;;;;0.20;0.20;;;3.30;99.90;;;;;;4898472;29;20199;-66
2023/04/02 06:00:50;;;;;;;0.82;0.82;;;3.40;99.90;;;;;;4897723;29;20239;-67
2023/04/02 06:03:26;;;;;;;1.65;0.20;;;3.40;99.90;;;;;;4897549;29;20230;-67
2023/04/02 06:05:55;;;;;;;0.38;0.38;;;3.50;99.90;;;;;;4898084;29;20241;-66
2023/04/02 06:08:27;;;;;;;0.28;0.28;;;3.50;99.90;;;;;;4897977;29;20218;-67
2023/04/02 06:11:01;;;;;;;0.20;0.20;;;3.60;99.90;;;;;;4897634;29;20766;-67
2023/04/02 06:13:28;;;;;;;0.20;0.20;;;3.60;99.90;;;;;;4891737;29;20207;-67
2023/04/02 06:15:55;;;;;;;0.10;0.10;;;3.70;99.90;;;;;;4897576;29;20320;-67
2023/04/02 06:18:26;;;;;;;0.10;0.10;;;3.80;99.90;;;;;;4897728;29;20218;-67
2023/04/02 06:20:53;;;;;;;0.10;0.10;;;3.80;99.90;;;;;;4897680;29;20230;-66
2023/04/02 06:23:24;;;;;;;0.52;0.52;;;3.80;99.90;;;;;;4897162;29;20230;-67
2023/04/02 06:25:57;;;;;;;0.20;0.20;;;3.90;99.90;;;;;;4894596;29;20299;-67
2023/04/02 06:28:28;;;;;;;0.30;0.30;;;4.00;99.90;;;;;;4896996;29;20238;-67
2023/04/02 06:31:01;;;;;;;0.10;0.10;;;4.00;99.90;;;;;;4878964;29;20236;-67
2023/04/02 06:33:29;;;;;;;1.95;0.95;;;4.10;99.90;;;;;;4895601;29;20712;-67
2023/04/02 06:35:56;;;;;;;4.55;0.82;;;4.10;99.90;;;;;;4897324;29;20266;-67
2023/04/02 06:38:25;;;;;;;0.10;0.10;;;4.20;99.90;;;;;;4886997;29;20224;-67
2023/04/02 06:40:54;;;;;;;0.10;0.10;;;4.20;99.90;;;;;;4897607;29;20231;-67
2023/04/02 06:43:32;;;;;;;0.10;0.10;;;4.30;99.90;;;;;;4897052;29;20322;-66
2023/04/02 06:46:01;;;;;;;0.22;0.22;;;4.40;99.90;;;;;;4897274;29;20290;-66
2023/04/02 06:48:31;;;;;;;0.20;0.20;;;4.40;99.90;;;;;;4896524;29;20212;-66
2023/04/02 06:51:03;;;;;;;0.10;0.10;;;4.50;99.90;;;;;;4891979;29;20238;-66
2023/04/02 06:53:35;;;;;;;0.28;0.28;;;4.50;99.90;;;;;;4896774;29;20669;-67
2023/04/02 06:56:05;;;;;;;0.20;0.20;;;4.60;99.90;;;;;;4897109;29;20633;-67
2023/04/02 06:58:32;;;;;;;0.32;0.32;;;4.60;99.90;;;;;;4897109;29;20207;-67
2023/04/02 07:00:59;;;;;;;0.10;0.10;;;4.60;99.90;;;;;;4894437;29;20341;-66
2023/04/02 07:03:29;;;;;;;0.20;0.20;;;4.70;99.90;;;;;;4896732;29;20257;-67
2023/04/02 07:05:56;;;;;;;0.20;0.20;;;4.70;99.90;;;;;;4899095;29;20203;-66
2023/04/02 07:08:23;;;;;;;0.20;0.20;;;4.80;99.90;;;;;;4890361;29;20210;-67
2023/04/02 07:10:50;;;;;;;7.97;0.73;;;4.80;99.90;;;;;;4897016;29;20238;-66
2023/04/02 07:13:18;;;;;;;0.20;0.20;;;4.80;99.90;;;;;;4890413;29;20207;-67
2023/04/02 07:15:46;;;;;;;0.10;0.10;;;4.90;99.90;;;;;;4892923;29;20525;-66
2023/04/02 07:18:23;;;;;;;0.40;0.40;;;4.90;99.90;;;;;;4896508;29;20212;-66
2023/04/02 07:20:51;;;;;;;0.38;0.38;;;5.00;99.90;;;;;;4897166;29;20223;-66
2023/04/02 07:23:19;;;;;;;0.10;0.10;;;4.90;99.90;;;;;;4896106;29;20227;-66
2023/04/02 07:25:46;;;;;;;2.25;0.95;;;4.90;99.90;;;;;;4881967;29;20637;-66
2023/04/02 07:28:13;;;;;;;0.80;0.80;;;5.00;99.90;;;;;;4892839;29;20211;-67
2023/04/02 07:30:40;;;;;;;0.30;0.30;;;5.10;99.90;;;;;;4896280;29;20258;-67
2023/04/02 07:33:07;;;;;;;0.10;0.10;;;5.10;99.90;;;;;;4896206;29;20207;-67
2023/04/02 07:35:34;;;;;;;2.50;0.82;;;5.20;99.90;;;;;;4892084;29;20221;-67
2023/04/02 07:38:02;;;;;;;0.20;0.20;;;5.20;99.90;;;;;;4888470;29;20208;-67
2023/04/02 07:40:28;;;;;;;0.10;0.10;;;5.20;99.90;;;;;;4896363;29;20211;-65
2023/04/02 07:42:55;;;;;;;0.20;0.20;;;5.30;99.90;;;;;;4895647;29;20223;-67
2023/04/02 07:45:22;;;;;;;0.95;0.95;;;5.40;99.90;;;;;;4891308;29;20219;-66
2023/04/02 07:47:48;;;;;;;0.10;0.10;;;5.40;99.90;;;;;;4896178;29;20203;-66
2023/04/02 07:50:16;;;;;;;3.50;0.65;;;5.50;99.90;;;;;;4895251;29;20207;-67
2023/04/02 07:52:43;;;;;;;0.10;0.10;;;5.50;99.90;;;;;;4896145;29;20199;-66
2023/04/02 07:55:14;;;;;;;0.73;0.30;;;5.60;99.90;;;;;;4895929;29;20211;-66
2023/04/02 07:57:48;;;;;;;0.10;0.10;;;5.60;99.90;;;;;;4895690;29;20225;-66
2023/04/02 08:00:15;;;;;;;0.10;0.10;;;5.70;99.90;;;;;;4894897;29;20561;-66
2023/04/02 08:02:42;;;;;;;0.25;0.25;;;5.80;99.90;;;;;;4895906;29;20219;-67
2023/04/02 08:05:10;;;;;;;0.50;0.50;;;5.80;99.90;;;;;;4895853;29;20230;-66
2023/04/02 08:07:37;;;;;;;0.95;0.35;;;5.80;99.90;;;;;;4897075;29;20211;-65
2023/04/02 08:10:05;;;;;;;0.20;0.20;;;5.80;99.90;;;;;;4896439;29;20366;-69
2023/04/02 08:12:34;;;;;;;1.05;0.95;;;5.60;99.90;;;;;;4895048;29;20279;-68
2023/04/02 08:15:01;;;;;;;0.20;0.20;;;5.50;99.90;;;;;;4894964;29;20319;-68
2023/04/02 08:17:30;;;;;;;0.10;0.10;;;5.40;99.90;;;;;;4885552;29;20212;-67
2023/04/02 08:19:59;;;;;;;0.20;0.20;;;5.30;99.90;;;;;;4894526;29;20256;-68
2023/04/02 08:22:27;;;;;;;11.43;0.50;;;5.30;99.90;;;;;;4886127;29;20252;-67
2023/04/02 08:24:53;;;;;;;0.50;0.50;;;5.40;99.90;;;;;;4894284;29;20203;-68
2023/04/02 08:27:20;;;;;;;0.50;0.35;;;5.50;99.90;;;;;;4894260;29;20203;-70
2023/04/02 08:29:49;;;;;;;0.38;0.38;;;5.50;99.90;;;;;;4893772;29;20631;-66
2023/04/02 08:32:16;;;;;;;0.10;0.10;;;5.60;99.90;;;;;;4893243;29;20223;-66
2023/04/02 08:34:43;;;;;;;0.30;0.30;;;5.70;99.90;;;;;;4891680;29;20219;-70
2023/04/02 08:37:12;;;;;;;0.17;0.17;;;5.80;99.90;;;;;;4893672;29;20237;-68
2023/04/02 08:39:39;;;;;;;0.10;0.10;;;5.80;99.90;;;;;;4896198;29;20837;-68
2023/04/02 08:42:18;;;;;;;0.10;0.10;;;6.00;99.90;;;;;;4913842;29;20211;-73
2023/04/02 08:44:56;;;;;;;0.20;0.20;;;6.20;99.90;;;;;;4918933;29;20191;-72
2023/04/02 08:47:26;;;;;;;0.35;0.35;;;6.30;99.90;;;;;;4920717;29;20198;-72
2023/04/02 08:49:57;;;;;;;0.30;0.30;;;6.50;99.90;;;;;;4920387;29;20211;-72
2023/04/02 08:52:27;;;;;;;0.30;0.30;;;6.70;99.90;;;;;;4920365;29;20235;-72
2023/04/02 08:54:56;;;;;;;4.32;1.05;;;6.80;99.90;;;;;;4919423;29;20203;-72
2023/04/02 08:57:32;;;;;;;0.10;0.10;;;6.70;99.90;;;;;;4914570;29;20226;-70
2023/04/02 09:00:09;;;;;;;0.20;0.20;;;6.50;99.90;;;;;;4910280;29;20207;-69
2023/04/02 09:02:42;;;;;;;0.10;0.10;;;6.20;99.90;;;;;;4900960;29;20243;-69
2023/04/02 09:05:17;;;;;;;0.10;0.10;;;6.00;99.90;;;;;;4898777;29;20223;-69
2023/04/02 09:07:45;;;;;;;0.10;0.10;;;6.00;99.90;;;;;;4895055;29;20222;-69
2023/04/02 09:10:15;;;;;;;0.88;0.88;;;5.90;99.90;;;;;;4893405;29;20212;-72
2023/04/02 09:12:44;;;;;;;0.80;0.80;;;5.80;99.90;;;;;;4899842;29;20203;-69
2023/04/02 09:15:22;;;;;;;0.20;0.20;;;5.90;99.90;;;;;;4899005;29;20227;-69
2023/04/02 09:17:50;;;;;;;0.32;0.32;;;6.10;99.90;;;;;;4899996;29;20207;-69
2023/04/02 09:20:21;;;;;;;0.10;0.10;;;6.50;99.90;;;;;;4900891;29;20595;-68
2023/04/02 09:22:50;;;;;;;0.38;0.38;;;6.80;99.90;;;;;;4900308;29;20224;-69
2023/04/02 09:25:20;;;;;;;0.30;0.30;;;6.90;99.90;;;;;;4897821;29;20685;-69
2023/04/02 09:27:49;;;;;;;1.95;0.73;;;6.90;99.90;;;;;;4894194;29;20211;-70
2023/04/02 09:30:28;;;;;;;0.63;0.63;;;6.70;99.90;;;;;;4897449;29;20208;-71
2023/04/02 09:32:56;;;;;;;0.45;0.45;;;6.50;99.90;;;;;;4911469;29;20246;-72
2023/04/02 09:35:25;;;;;;;2.60;0.40;;;6.40;99.90;;;;;;4917545;29;20235;-70
2023/04/02 09:38:20;;;;;;;2.08;0.30;;;6.30;99.90;;;;;;4893363;29;20288;-69
2023/04/02 09:40:50;;;;;;;0.20;0.20;;;6.40;99.90;;;;;;4880369;29;20231;-69
2023/04/02 09:43:18;;;;;;;0.20;0.20;;;6.50;99.90;;;;;;4886287;29;20640;-69
2023/04/02 09:45:57;;;;;;;0.10;0.10;;;6.60;99.90;;;;;;4891589;29;20204;-68
2023/04/02 09:48:29;;;;;;;1.38;0.32;;;6.80;99.90;;;;;;4878902;29;20231;-69
2023/04/02 09:51:14;;;;;;;0.30;0.30;;;7.00;99.90;;;;;;4897382;29;20231;-67
2023/04/02 09:53:43;;;;;;;0.30;0.30;;;7.20;99.90;;;;;;4889570;29;20251;-69
2023/04/02 09:56:13;;;;;;;0.10;0.10;;;7.30;99.90;;;;;;4888119;29;20651;-68
2023/04/02 09:58:42;;;;;;;3.80;0.40;;;7.40;99.90;;;;;;4878894;29;20665;-67
2023/04/02 10:01:29;;;;;;;0.85;0.30;;;7.40;99.90;;;;;;4879465;29;20248;-67
2023/04/02 10:03:57;;;;;;;0.20;0.20;;;7.50;99.90;;;;;;4890277;29;20231;-68
2023/04/02 10:06:26;;;;;;;0.20;0.20;;;7.60;99.90;;;;;;4895265;29;20208;-70
2023/04/02 10:08:52;;;;;;;0.10;0.10;;;7.80;99.90;;;;;;4896335;29;20219;-68
2023/04/02 10:11:24;;;;;;;0.88;0.88;;;7.90;99.90;;;;;;4878698;29;20342;-72
2023/04/02 10:13:54;;;;;;;0.30;0.30;;;7.90;99.90;;;;;;4891114;29;20238;-69
2023/04/02 10:16:31;;;;;;;0.35;0.35;;;8.00;99.90;;;;;;4894519;29;20204;-68
2023/04/02 10:19:00;;;;;;;0.10;0.10;;;8.10;99.90;;;;;;4878679;29;20211;-68
2023/04/02 10:21:29;;;;;;;0.20;0.20;;;8.30;99.90;;;;;;4878871;29;20705;-68
2023/04/02 10:23:58;;;;;;;0.10;0.10;;;8.40;99.90;;;;;;4889032;29;20238;-69
2023/04/02 10:26:43;;;;;;;0.82;0.82;;;8.50;99.90;;;;;;4897692;29;20666;-68
2023/04/02 10:29:26;;;;;;;0.20;0.20;;;8.30;99.90;;;;;;4894289;29;20544;-69
2023/04/02 10:32:01;;;;;;;16.55;0.60;;;8.00;99.90;;;;;;4897346;29;20258;-68
2023/04/02 10:34:35;;;;;;;0.10;0.10;;;7.80;99.90;;;;;;4877740;29;20207;-70
2023/04/02 10:37:31;;;;;;;1.63;0.30;;;7.80;99.90;;;;;;4882911;29;20282;-68
2023/04/02 10:40:07;;;;;;;0.40;0.40;;;7.60;99.90;;;;;;4879560;29;20241;-67
2023/04/02 10:42:41;;;;;;;0.20;0.20;;;7.40;99.90;;;;;;4891236;29;20231;-69
2023/04/02 10:45:19;;;;;;;0.10;0.10;;;7.30;99.90;;;;;;4895785;29;20236;-69
2023/04/02 10:47:56;;;;;;;0.20;0.20;;;7.40;99.90;;;;;;4882089;29;20210;-70
2023/04/02 10:50:31;;;;;;;3.67;0.45;;;7.60;99.90;;;;;;4894565;29;20214;-69
2023/04/02 10:53:11;;;;;;;0.38;0.38;;;7.90;99.90;;;;;;4880642;29;20203;-69
2023/04/02 10:55:42;;;;;;;0.20;0.20;;;8.00;99.90;;;;;;4879691;29;20219;-69
2023/04/02 10:58:23;;;;;;;0.20;0.10;;;8.10;99.90;;;;;;4894423;29;20226;-69
2023/04/02 11:00:51;;;;;;;0.17;0.17;;;8.30;99.90;;;;;;4885482;29;20270;-69
2023/04/02 11:03:30;;;;;;;0.47;0.47;;;8.20;99.90;;;;;;4888063;29;20223;-69
2023/04/02 11:05:59;;;;;;;0.20;0.20;;;8.30;99.90;;;;;;4896698;29;20215;-70
2023/04/02 11:08:30;;;;;;;0.22;0.22;;;8.30;99.90;;;;;;4894039;29;20208;-70
2023/04/02 11:11:01;;;;;;;0.20;0.20;;;8.30;99.90;;;;;;4896684;29;20230;-69
2023/04/02 11:13:31;;;;;;;0.20;0.20;;;8.30;99.90;;;;;;4895719;29;20587;-69
2023/04/02 11:15:58;;;;;;;0.20;0.20;;;8.30;99.90;;;;;;4895091;29;20223;-71
2023/04/02 11:18:32;;;;;;;8.43;0.70;;;8.20;99.90;;;;;;4892806;29;20686;-70
2023/04/02 11:21:02;;;;;;;0.20;0.20;;;8.30;99.90;;;;;;4895543;29;20230;-69
2023/04/02 11:23:32;;;;;;;1.65;0.30;;;8.30;99.90;;;;;;4882945;29;20768;-71
2023/04/02 11:26:36;;;;;;;0.20;0.20;;;8.20;99.90;;;;;;4878050;29;20235;-70
2023/04/02 11:29:19;;;;;;;0.20;0.20;;;8.10;99.90;;;;;;4892538;29;20205;-70
2023/04/02 11:31:48;;;;;;;0.25;0.25;;;8.20;99.90;;;;;;4877600;29;20386;-67
2023/04/02 11:34:57;;;;;;;0.10;0.10;;;8.30;99.90;;;;;;4895066;29;20207;-70
2023/04/02 11:37:35;;;;;;;0.20;0.20;;;8.50;99.90;;;;;;4895779;29;20211;-69
2023/04/02 11:40:05;;;;;;;0.38;0.38;;;8.40;99.90;;;;;;4887353;29;20203;-70
2023/04/02 11:42:32;;;;;;;0.10;0.10;;;8.40;99.90;;;;;;4877390;29;20238;-71
2023/04/02 11:45:21;;;;;;;0.45;0.45;;;8.60;99.90;;;;;;4876756;29;20235;-68
2023/04/02 11:48:21;;;;;;;0.20;0.20;;;8.70;99.90;;;;;;4889383;29;20643;-70
2023/04/02 11:50:49;;;;;;;0.75;0.20;;;8.90;99.90;;;;;;4886715;29;20227;-69
2023/04/02 11:53:22;;;;;;;3.17;0.75;;;8.80;99.90;;;;;;4895211;29;20202;-70
2023/04/02 11:56:18;;;;;;;0.22;0.22;;;8.90;99.90;;;;;;4896103;29;20704;-68
2023/04/02 11:59:00;;;;;;;1.15;0.20;;;8.80;99.90;;;;;;4891441;29;20203;-68
2023/04/02 12:01:54;;;;;;;0.63;0.55;;;8.60;99.90;;;;;;4877116;29;20692;-68
2023/04/02 12:04:52;;;;;;;0.43;0.43;;;8.50;99.90;;;;;;4882460;29;20230;-69
2023/04/02 12:07:52;;;;;;;2.25;2.05;;;8.20;99.90;;;;;;4887788;29;20207;-68
2023/04/02 12:10:20;;;;;;;0.20;0.20;;;8.00;99.90;;;;;;4876981;29;20272;-68
2023/04/02 12:12:48;;;;;;;4.20;0.50;;;8.10;99.90;;;;;;4887263;29;20242;-68
2023/04/02 12:15:43;;;;;;;0.77;0.25;;;8.20;99.90;;;;;;4884278;29;20626;-68
2023/04/02 12:18:19;;;;;;;0.45;0.20;;;8.50;99.90;;;;;;4889697;29;20246;-68
2023/04/02 12:20:48;;;;;;;0.10;0.10;;;8.50;99.90;;;;;;4885550;29;20316;-68
2023/04/02 12:23:28;;;;;;;0.10;0.10;;;8.60;99.90;;;;;;4892056;29;20216;-67
2023/04/02 12:25:59;;;;;;;12.88;0.50;;;8.80;99.90;;;;;;4877079;29;20216;-69
2023/04/02 12:28:28;;;;;;;2.67;0.73;;;9.00;99.90;;;;;;4892309;29;20676;-67
2023/04/02 12:31:04;;;;;;;0.52;0.52;;;9.20;99.90;;;;;;4879434;29;20247;-68
2023/04/02 12:33:36;;;;;;;0.10;0.10;;;9.10;99.90;;;;;;4891841;29;20207;-67
2023/04/02 12:36:05;;;;;;;0.20;0.20;;;9.00;99.90;;;;;;4894296;29;20274;-67
2023/04/02 12:38:35;;;;;;;0.20;0.20;;;8.90;99.90;;;;;;4892566;29;20219;-67
2023/04/02 12:41:04;;;;;;;0.10;0.10;;;8.70;99.90;;;;;;4894876;29;20227;-67
2023/04/02 12:43:32;;;;;;;0.20;0.20;;;8.60;99.90;;;;;;4892846;29;20238;-68
2023/04/02 12:46:01;;;;;;;0.38;0.30;;;8.60;99.90;;;;;;4895333;29;20206;-68
2023/04/02 12:48:29;;;;;;;0.30;0.30;;;8.80;99.90;;;;;;4893735;29;20579;-68
2023/04/02 12:50:56;;;;;;;0.30;0.30;;;9.00;99.90;;;;;;4879509;29;20243;-67
2023/04/02 12:53:26;;;;;;;0.30;0.30;;;9.20;99.90;;;;;;4890251;29;20683;-68
2023/04/02 12:55:56;;;;;;;0.20;0.20;;;9.40;99.90;;;;;;4893986;29;20215;-68
2023/04/02 12:58:29;;;;;;;0.10;0.10;;;9.30;99.90;;;;;;4893141;29;20745;-68
2023/04/02 13:01:13;;;;;;;0.20;0.20;;;9.00;99.90;;;;;;4882620;29;20243;-67
2023/04/02 13:03:40;;;;;;;0.45;0.45;;;8.80;99.90;;;;;;4883830;29;20238;-68
2023/04/02 13:06:21;;;;;;;0.20;0.20;;;8.80;99.90;;;;;;4894467;29;20234;-67
2023/04/02 13:08:48;;;;;;;1.38;1.38;;;9.10;99.90;;;;;;4888768;29;20247;-68
2023/04/02 13:14:38;;;;;;;0.10;0.10;;;9.30;99.90;;;;;;4887869;29;20246;-68
2023/04/02 13:17:42;;;;;;;0.30;0.30;;;9.10;99.90;;;;;;4888420;29;20215;-68
2023/04/02 13:20:29;;;;;;;0.20;0.20;;;8.90;99.90;;;;;;4886945;29;20283;-69
2023/04/02 13:22:56;;;;;;;0.10;0.10;;;8.80;99.90;;;;;;4891175;29;20212;-68
2023/04/02 13:25:28;;;;;;;0.20;0.20;;;8.70;99.90;;;;;;4886464;29;20219;-68
2023/04/02 13:27:54;;;;;;;0.50;0.50;;;8.60;99.90;;;;;;4894448;29;20871;-70
2023/04/02 13:30:25;;;;;;;1.30;0.75;;;8.60;99.90;;;;;;4889902;29;20231;-69
2023/04/02 13:32:52;;;;;;;0.20;0.20;;;8.70;99.90;;;;;;4894476;29;20212;-68
2023/04/02 13:35:18;;;;;;;0.40;0.40;;;8.90;99.90;;;;;;4894705;29;20207;-68
2023/04/02 13:37:45;;;;;;;0.20;0.20;;;9.20;99.90;;;;;;4894649;29;20207;-68
2023/04/02 13:40:14;;;;;;;0.50;0.30;;;9.30;99.90;;;;;;4894169;29;20211;-68
2023/04/02 13:42:41;;;;;;;0.88;0.88;;;8.90;99.90;;;;;;4893180;29;20211;-69
2023/04/02 13:45:21;;;;;;;0.20;0.20;;;8.80;99.90;;;;;;4884842;29;20231;-70
2023/04/02 13:47:49;;;;;;;0.52;0.52;;;8.80;99.90;;;;;;4894647;29;20585;-69
2023/04/02 13:50:17;;;;;;;0.57;0.57;;;9.00;99.90;;;;;;4893059;29;20218;-70
2023/04/02 13:52:44;;;;;;;0.40;0.40;;;9.20;99.90;;;;;;4900032;29;20211;-69
2023/04/02 13:55:14;;;;;;;0.40;0.40;;;9.40;99.90;;;;;;4886748;29;20314;-70
2023/04/02 13:57:41;;;;;;;10.02;0.43;;;9.30;99.90;;;;;;4903384;29;20215;-70
2023/04/02 14:00:09;;;;;;;0.20;0.20;;;9.00;99.90;;;;;;4896877;29;20211;-69
2023/04/02 14:02:42;;;;;;;1.35;0.38;;;8.90;99.90;;;;;;4888481;29;20594;-69
2023/04/02 14:05:24;;;;;;;0.60;0.60;;;8.90;99.90;;;;;;4886861;29;20322;-69
2023/04/02 14:08:08;;;;;;;1.15;0.98;;;8.80;99.90;;;;;;4893489;29;20207;-69
2023/04/02 14:11:06;;;;;;;0.20;0.20;;;8.80;99.90;;;;;;4887026;29;20235;-69
2023/04/02 14:13:48;;;;;;;0.47;0.47;;;8.80;99.90;;;;;;4883165;29;20211;-70
2023/04/02 14:16:30;;;;;;;0.20;0.20;;;8.90;99.90;;;;;;4889437;29;20211;-69
2023/04/02 14:19:12;;;;;;;4.75;0.65;;;8.90;99.90;;;;;;4893950;29;20676;-68
2023/04/02 14:21:52;;;;;;;0.20;0.20;;;8.70;99.90;;;;;;4885425;29;20843;-68
2023/04/02 14:24:24;;;;;;;0.90;0.43;;;8.70;99.90;;;;;;4889197;29;20223;-68
2023/04/02 14:27:02;;;;;;;1.40;0.50;;;8.60;99.90;;;;;;4888335;29;20211;-69
2023/04/02 14:29:33;;;;;;;0.20;0.20;;;8.70;99.90;;;;;;4902700;29;20240;-68
2023/04/02 14:32:06;;;;;;;0.75;0.75;;;8.70;99.90;;;;;;4893764;29;20236;-69
2023/04/02 14:34:41;;;;;;;0.20;0.20;;;8.60;99.90;;;;;;4896517;29;20267;-69
2023/04/02 14:37:18;;;;;;;0.17;0.17;;;8.40;99.90;;;;;;4895895;29;20218;-68
2023/04/02 14:39:53;;;;;;;0.20;0.20;;;8.40;99.90;;;;;;4891866;29;20211;-68
2023/04/02 14:42:26;;;;;;;6.43;0.85;;;8.40;99.90;;;;;;4896171;29;20222;-70
2023/04/02 14:45:01;;;;;;;1.20;0.55;;;8.60;99.90;;;;;;4895816;29;20227;-69
2023/04/02 14:47:33;;;;;;;0.35;0.35;;;8.80;99.90;;;;;;4894972;29;20222;-69
2023/04/02 14:50:07;;;;;;;0.40;0.40;;;8.90;99.90;;;;;;4887452;29;20224;-69
2023/04/02 14:52:36;;;;;;;2.40;0.43;;;8.90;99.90;;;;;;4892291;29;20227;-70
2023/04/02 14:55:09;;;;;;;0.20;0.20;;;8.80;99.90;;;;;;4895445;29;20211;-70
2023/04/02 14:57:38;;;;;;;0.20;0.20;;;8.70;99.90;;;;;;4890054;29;20584;-70
2023/04/02 15:00:09;;;;;;;0.28;0.28;;;8.60;99.90;;;;;;4895693;29;20215;-69
2023/04/02 15:02:42;;;;;;;0.20;0.20;;;8.60;99.90;;;;;;4896271;29;20259;-70
2023/04/02 15:05:17;;;;;;;0.35;0.35;;;8.60;99.90;;;;;;4894662;29;20258;-70
2023/04/02 15:07:49;;;;;;;0.20;0.20;;;8.70;99.90;;;;;;4888809;29;20637;-69
2023/04/02 15:10:23;;;;;;;0.20;0.20;;;8.70;99.90;;;;;;4889033;29;20230;-69
2023/04/02 15:12:53;;;;;;;1.65;0.55;;;8.60;99.90;;;;;;4894471;29;20330;-69
2023/04/02 15:15:33;;;;;;;0.28;0.28;;;8.50;99.90;;;;;;4895541;29;20211;-70
2023/04/02 15:18:01;;;;;;;0.98;0.63;;;8.40;99.90;;;;;;4895096;29;20303;-69
2023/04/02 15:20:38;;;;;;;0.20;0.20;;;8.40;99.90;;;;;;4894620;29;20218;-68
2023/04/02 15:23:14;;;;;;;0.77;0.77;;;8.30;99.90;;;;;;4894001;29;20245;-69
2023/04/02 15:25:47;;;;;;;0.50;0.50;;;8.30;99.90;;;;;;4901368;29;20230;-70
2023/04/02 15:28:26;;;;;;;1.35;0.55;;;8.30;99.90;;;;;;4903777;29;20213;-69
2023/04/02 15:30:55;;;;;;;0.70;0.70;;;8.10;99.90;;;;;;4906462;29;20258;-69
2023/04/02 15:33:38;;;;;;;0.10;0.10;;;8.10;99.90;;;;;;4901191;29;20204;-69
2023/04/02 15:36:27;;;;;;;1.75;1.00;;;8.20;99.90;;;;;;4904316;29;20367;-69
2023/04/02 15:39:04;;;;;;;0.40;0.40;;;8.20;99.90;;;;;;4889305;29;20214;-71
2023/04/02 15:41:35;;;;;;;0.30;0.30;;;8.40;99.90;;;;;;4895137;29;20731;-70
2023/04/02 15:44:08;;;;;;;2.85;0.90;;;8.30;99.90;;;;;;4892270;29;20200;-69
2023/04/02 15:46:43;;;;;;;1.30;1.30;;;8.20;99.90;;;;;;4891526;29;20216;-69
2023/04/02 15:49:27;;;;;;;2.20;1.38;;;8.30;99.90;;;;;;4893553;29;20215;-70
2023/04/02 15:52:05;;;;;;;0.85;0.77;;;8.30;99.90;;;;;;4891868;29;20223;-69
2023/04/02 15:55:00;;;;;;;0.80;0.75;;;8.40;99.90;;;;;;4888131;29;20199;-68
2023/04/02 15:57:52;;;;;;;0.75;0.75;;;8.30;99.90;;;;;;4893983;29;20299;-68
2023/04/02 16:00:26;;;;;;;0.43;0.43;;;8.20;99.90;;;;;;4894625;29;20219;-69
2023/04/02 16:03:21;;;;;;;0.10;0.10;;;8.20;99.90;;;;;;4896384;29;20253;-70
2023/04/02 16:06:00;;;;;;;1.95;1.08;;;8.20;99.90;;;;;;4888871;29;20231;-68
2023/04/02 16:08:42;;;;;;;1.63;1.52;;;8.30;99.90;;;;;;4894922;29;20278;-73
2023/04/02 16:11:13;;;;;;;0.40;0.40;;;8.40;99.90;;;;;;4913733;29;20235;-72
2023/04/02 16:13:42;;;;;;;0.30;0.30;;;8.40;99.90;;;;;;4917812;29;20195;-70
2023/04/02 16:16:14;;;;;;;0.38;0.38;;;8.30;99.90;;;;;;4898816;29;20218;-70
2023/04/02 16:18:47;;;;;;;0.32;0.32;;;8.20;99.90;;;;;;4890417;29;20216;-69
2023/04/02 16:21:18;;;;;;;2.70;0.75;;;8.10;99.90;;;;;;4890006;29;20681;-68
2023/04/02 16:23:45;;;;;;;0.63;0.28;;;8.00;99.90;;;;;;4893860;29;20211;-69
2023/04/02 16:26:36;;;;;;;0.75;0.75;;;7.80;99.90;;;;;;4894714;29;20321;-68
2023/04/02 16:29:19;;;;;;;0.15;0.15;;;7.70;99.90;;;;;;4886310;29;20554;-68
2023/04/02 16:31:52;;;;;;;0.50;0.50;;;7.40;99.90;;;;;;4891012;29;20242;-68
2023/04/02 16:34:25;;;;;;;2.38;1.48;;;7.60;99.90;;;;;;4883630;29;20230;-70
2023/04/02 16:36:58;;;;;;;2.60;0.65;;;7.50;99.90;;;;;;4912776;23;20238;-69
2023/04/02 16:39:33;;;;;;;3.28;0.80;;;7.40;99.90;;;;;;4892698;29;20211;-69
2023/04/02 16:42:12;;;;;;;0.30;0.30;;;7.30;99.90;;;;;;4892846;29;20219;-68
2023/04/02 16:44:50;;;;;;;0.35;0.35;;;7.30;99.90;;;;;;4891694;29;20231;-70
2023/04/02 16:47:30;;;;;;;1.15;1.15;;;7.30;99.90;;;;;;4893274;29;20718;-69
2023/04/02 16:50:03;;;;;;;1.50;0.68;;;7.30;99.90;;;;;;4895188;29;20553;-68
2023/04/02 16:52:40;;;;;;;0.22;0.22;;;7.30;99.90;;;;;;4889449;29;20593;-69
2023/04/02 16:55:23;;;;;;;0.10;0.10;;;7.30;99.90;;;;;;4896100;29;20211;-69
2023/04/02 16:58:02;;;;;;;0.43;0.40;;;7.30;99.90;;;;;;4896358;29;20235;-68
2023/04/02 17:00:37;;;;;;;0.68;0.68;;;7.20;99.90;;;;;;4894464;29;20250;-69
2023/04/02 17:03:18;;;;;;;0.73;0.73;;;7.20;99.90;;;;;;4892769;29;20664;-69
2023/04/02 17:05:53;;;;;;;4.10;0.30;;;7.20;99.90;;;;;;4895566;29;20223;-69
2023/04/02 17:08:23;;;;;;;1.20;1.20;;;7.00;99.90;;;;;;4893769;29;20245;-69
2023/04/02 17:10:55;;;;;;;0.50;0.50;;;7.00;99.90;;;;;;4895023;29;20211;-70
2023/04/02 17:13:37;;;;;;;0.17;0.17;;;6.90;99.90;;;;;;4889420;29;20214;-69
2023/04/02 17:16:12;;;;;;;0.25;0.25;;;6.80;99.90;;;;;;4891757;29;20206;-73
2023/04/02 17:18:42;;;;;;;0.57;0.57;;;6.80;99.90;;;;;;4893294;29;20214;-70
2023/04/02 17:21:14;;;;;;;0.47;0.47;;;6.80;99.90;;;;;;4894916;29;20215;-70
2023/04/02 17:23:49;;;;;;;0.68;0.68;;;6.70;99.90;;;;;;4897304;29;20294;-70
2023/04/02 17:26:20;;;;;;;0.30;0.30;;;6.70;99.90;;;;;;4898476;29;20857;-70
2023/04/02 17:28:51;;;;;;;0.85;0.85;;;6.70;99.90;;;;;;4896726;29;20298;-68
2023/04/02 17:31:21;;;;;;;0.60;0.60;;;6.70;99.90;;;;;;4897376;29;20218;-69
2023/04/02 17:33:48;;;;;;;0.65;0.50;;;6.70;99.90;;;;;;4896261;29;20211;-70